sensor_id;sensor_type;location;lat;lon;timestamp;pressure;altitude;pressure_sealevel;temperature;humidity
12360;BME280;6244;51.460;7.090;2023-11-19T00:00:23;99933.03;;;9.54;100.00
12360;BME280;6244;51.460;7.090;2023-11-19T00:05:21;99924.31;;;9.69;100.00
12360;BME280;6244;51.460;7.090;2023-11-19T00:10:17;99939.28;;;9.67;100.00
12360;BME280;6244;51.460;7.090;2023-11-19T00:15:15;99943.31;;;9.73;100.00
12360;BME280;6244;51.460;7.090;2023-11-19T00:20:14;99953.34;;;9.81;100.00
12360;BME280;6244;51.460;7.090;2023-11-19T00:25:12;99964.47;;;9.84;100.00
12360;BME280;6244;51.460;7.090;2023-11-19T00:30:09;99965.78;;;9.91;100.00
12360;BME280;6244;51.460;7.090;2023-11-19T00:35:06;99972.84;;;10.05;100.00
12360;BME280;6244;51.460;7.090;2023-11-19T00:40:06;99961.03;;;10.12;100.00
12360;BME280;6244;51.460;7.090;2023-11-19T00:45:05;99940.47;;;10.20;100.00
12360;BME280;6244;51.460;7.090;2023-11-19T00:50:04;99947.66;;;10.17;100.00
12360;BME280;6244;51.460;7.090;2023-11-19T00:55:01;99928.78;;;10.26;100.00
12360;BME280;6244;51.460;7.090;2023-11-19T00:59:57;99918.88;;;10.31;100.00
12360;BME280;6244;51.460;7.090;2023-11-19T01:04:55;99919.50;;;10.35;100.00
12360;BME280;6244;51.460;7.090;2023-11-19T01:09:52;99922.34;;;10.32;100.00
12360;BME280;6244;51.460;7.090;2023-11-19T01:14:49;99910.13;;;10.45;100.00
12360;BME280;6244;51.460;7.090;2023-11-19T01:19:45;99925.69;;;10.48;100.00
12360;BME280;6244;51.460;7.090;2023-11-19T01:24:43;99918.44;;;10.51;100.00
12360;BME280;6244;51.460;7.090;2023-11-19T01:29:40;99919.03;;;10.56;100.00
12360;BME280;6244;51.460;7.090;2023-11-19T01:34:38;99923.88;;;10.63;100.00
12360;BME280;6244;51.460;7.090;2023-11-19T01:39:34;99920.97;;;10.67;100.00
12360;BME280;6244;51.460;7.090;2023-11-19T01:44:32;99922.25;;;10.74;100.00
12360;BME280;6244;51.460;7.090;2023-11-19T01:49:30;99912.91;;;10.70;100.00
12360;BME280;6244;51.460;7.090;2023-11-19T01:54:28;99906.31;;;10.77;100.00
12360;BME280;6244;51.460;7.090;2023-11-19T01:59:25;99906.13;;;10.80;100.00
12360;BME280;6244;51.460;7.090;2023-11-19T02:04:24;99902.63;;;10.94;100.00
12360;BME280;6244;51.460;7.090;2023-11-19T02:09:21;99893.69;;;10.97;100.00
12360;BME280;6244;51.460;7.090;2023-11-19T02:14:18;99901.13;;;10.90;100.00
12360;BME280;6244;51.460;7.090;2023-11-19T02:19:15;99876.28;;;10.96;100.00
12360;BME280;6244;51.460;7.090;2023-11-19T02:24:15;99861.88;;;11.01;100.00
12360;BME280;6244;51.460;7.090;2023-11-19T02:29:16;99872.41;;;11.01;100.00
12360;BME280;6244;51.460;7.090;2023-11-19T02:34:13;99856.75;;;11.00;100.00
12360;BME280;6244;51.460;7.090;2023-11-19T02:39:09;99850.56;;;11.01;100.00
12360;BME280;6244;51.460;7.090;2023-11-19T02:44:07;99862.41;;;10.94;100.00
12360;BME280;6244;51.460;7.090;2023-11-19T02:49:05;99864.63;;;11.00;100.00
12360;BME280;6244;51.460;7.090;2023-11-19T02:54:02;99856.75;;;11.00;100.00
12360;BME280;6244;51.460;7.090;2023-11-19T02:58:59;99863.28;;;11.07;100.00
12360;BME280;6244;51.460;7.090;2023-11-19T03:04:00;99834.50;;;11.05;100.00
12360;BME280;6244;51.460;7.090;2023-11-19T03:08:58;99850.59;;;11.13;100.00
12360;BME280;6244;51.460;7.090;2023-11-19T03:14:01;99851.31;;;11.15;100.00
12360;BME280;6244;51.460;7.090;2023-11-19T03:18:58;99839.13;;;11.14;100.00
12360;BME280;6244;51.460;7.090;2023-11-19T03:23:55;99828.84;;;11.11;100.00
12360;BME280;6244;51.460;7.090;2023-11-19T03:28:55;99824.66;;;11.09;100.00
12360;BME280;6244;51.460;7.090;2023-11-19T03:33:52;99842.19;;;11.08;100.00
12360;BME280;6244;51.460;7.090;2023-11-19T03:38:49;99844.78;;;10.96;100.00
12360;BME280;6244;51.460;7.090;2023-11-19T03:43:46;99855.53;;;11.05;100.00
12360;BME280;6244;51.460;7.090;2023-11-19T03:48:43;99842.03;;;10.97;100.00
12360;BME280;6244;51.460;7.090;2023-11-19T03:53:42;99839.72;;;10.93;100.00
12360;BME280;6244;51.460;7.090;2023-11-19T03:58:39;99860.38;;;10.84;100.00
12360;BME280;6244;51.460;7.090;2023-11-19T04:03:35;99849.53;;;10.76;100.00
12360;BME280;6244;51.460;7.090;2023-11-19T04:08:33;99840.53;;;10.80;100.00
12360;BME280;6244;51.460;7.090;2023-11-19T04:13:30;99844.28;;;10.76;100.00
12360;BME280;6244;51.460;7.090;2023-11-19T04:18:27;99840.66;;;10.65;100.00
12360;BME280;6244;51.460;7.090;2023-11-19T04:23:23;99839.53;;;10.69;100.00
12360;BME280;6244;51.460;7.090;2023-11-19T04:28:22;99837.19;;;10.64;100.00
12360;BME280;6244;51.460;7.090;2023-11-19T04:33:18;99853.25;;;10.59;100.00
12360;BME280;6244;51.460;7.090;2023-11-19T04:38:15;99851.75;;;10.55;100.00
12360;BME280;6244;51.460;7.090;2023-11-19T04:43:11;99852.28;;;10.61;100.00
12360;BME280;6244;51.460;7.090;2023-11-19T04:48:09;99848.84;;;10.60;100.00
12360;BME280;6244;51.460;7.090;2023-11-19T04:53:07;99863.94;;;10.56;100.00
12360;BME280;6244;51.460;7.090;2023-11-19T04:58:04;99878.53;;;10.61;100.00
12360;BME280;6244;51.460;7.090;2023-11-19T05:03:00;99869.19;;;10.56;100.00
12360;BME280;6244;51.460;7.090;2023-11-19T05:07:59;99880.47;;;10.71;100.00
12360;BME280;6244;51.460;7.090;2023-11-19T05:12:55;99873.88;;;10.78;100.00
12360;BME280;6244;51.460;7.090;2023-11-19T05:17:52;99881.69;;;10.80;100.00
12360;BME280;6244;51.460;7.090;2023-11-19T05:22:48;99864.69;;;10.85;100.00
12360;BME280;6244;51.460;7.090;2023-11-19T05:27:49;99877.06;;;10.83;100.00
12360;BME280;6244;51.460;7.090;2023-11-19T05:32:46;99868.41;;;10.96;100.00
12360;BME280;6244;51.460;7.090;2023-11-19T05:37:42;99876.53;;;11.05;100.00
12360;BME280;6244;51.460;7.090;2023-11-19T05:42:39;99871.91;;;11.09;100.00
12360;BME280;6244;51.460;7.090;2023-11-19T05:47:37;99882.78;;;11.03;100.00
12360;BME280;6244;51.460;7.090;2023-11-19T05:52:33;99881.66;;;11.07;100.00
12360;BME280;6244;51.460;7.090;2023-11-19T05:57:30;99885.03;;;11.09;100.00
12360;BME280;6244;51.460;7.090;2023-11-19T06:02:26;99898.75;;;11.00;100.00
12360;BME280;6244;51.460;7.090;2023-11-19T06:07:24;99887.81;;;10.93;100.00
12360;BME280;6244;51.460;7.090;2023-11-19T06:12:21;99875.00;;;11.01;100.00
12360;BME280;6244;51.460;7.090;2023-11-19T06:17:17;99874.38;;;10.98;100.00
12360;BME280;6244;51.460;7.090;2023-11-19T06:22:14;99878.25;;;10.92;100.00
12360;BME280;6244;51.460;7.090;2023-11-19T06:27:12;99880.53;;;10.84;100.00
12360;BME280;6244;51.460;7.090;2023-11-19T06:32:09;99897.84;;;10.86;100.00
12360;BME280;6244;51.460;7.090;2023-11-19T06:37:05;99899.09;;;10.81;100.00
12360;BME280;6244;51.460;7.090;2023-11-19T06:42:04;99903.09;;;10.86;98.96
12360;BME280;6244;51.460;7.090;2023-11-19T06:47:02;99911.28;;;10.82;97.95
12360;BME280;6244;51.460;7.090;2023-11-19T06:51:58;99916.06;;;10.75;95.95
12360;BME280;6244;51.460;7.090;2023-11-19T06:56:55;99915.38;;;10.86;93.26
12360;BME280;6244;51.460;7.090;2023-11-19T07:01:52;99920.19;;;10.79;92.82
12360;BME280;6244;51.460;7.090;2023-11-19T07:06:50;99923.84;;;10.77;92.90
12360;BME280;6244;51.460;7.090;2023-11-19T07:11:47;99915.47;;;10.57;94.10
12360;BME280;6244;51.460;7.090;2023-11-19T07:16:47;99932.03;;;10.58;94.00
12360;BME280;6244;51.460;7.090;2023-11-19T07:21:43;99927.84;;;10.55;93.85
12360;BME280;6244;51.460;7.090;2023-11-19T07:26:42;99936.66;;;10.54;93.64
12360;BME280;6244;51.460;7.090;2023-11-19T07:31:39;99947.22;;;10.53;93.90
12360;BME280;6244;51.460;7.090;2023-11-19T07:36:36;99951.63;;;10.52;94.02
12360;BME280;6244;51.460;7.090;2023-11-19T07:41:33;99964.19;;;10.47;93.88
12360;BME280;6244;51.460;7.090;2023-11-19T07:46:31;99968.28;;;10.51;93.19
12360;BME280;6244;51.460;7.090;2023-11-19T07:51:28;99970.81;;;10.53;92.18
12360;BME280;6244;51.460;7.090;2023-11-19T07:56:24;99983.88;;;10.54;91.68
12360;BME280;6244;51.460;7.090;2023-11-19T08:01:21;99980.47;;;10.52;91.33
12360;BME280;6244;51.460;7.090;2023-11-19T08:06:20;99991.06;;;10.51;91.50
12360;BME280;6244;51.460;7.090;2023-11-19T08:11:16;100001.19;;;10.57;91.21
12360;BME280;6244;51.460;7.090;2023-11-19T08:16:15;99999.31;;;10.59;90.76
12360;BME280;6244;51.460;7.090;2023-11-19T08:21:11;100006.03;;;10.63;90.43
12360;BME280;6244;51.460;7.090;2023-11-19T08:26:10;100013.47;;;10.71;89.67
12360;BME280;6244;51.460;7.090;2023-11-19T08:31:06;100021.69;;;10.79;89.30
12360;BME280;6244;51.460;7.090;2023-11-19T08:36:03;100007.66;;;10.80;89.46
12360;BME280;6244;51.460;7.090;2023-11-19T08:41:00;100000.69;;;10.93;88.90
12360;BME280;6244;51.460;7.090;2023-11-19T08:45:58;100001.69;;;11.05;88.68
12360;BME280;6244;51.460;7.090;2023-11-19T08:50:54;100001.13;;;11.00;88.94
12360;BME280;6244;51.460;7.090;2023-11-19T08:55:51;100006.38;;;11.00;88.31
12360;BME280;6244;51.460;7.090;2023-11-19T09:00:47;100005.41;;;11.15;87.55
12360;BME280;6244;51.460;7.090;2023-11-19T09:05:46;100018.41;;;11.31;86.47
12360;BME280;6244;51.460;7.090;2023-11-19T09:10:45;100011.66;;;11.27;86.08
12360;BME280;6244;51.460;7.090;2023-11-19T09:15:41;100006.28;;;11.42;86.11
12360;BME280;6244;51.460;7.090;2023-11-19T09:20:38;100026.41;;;11.56;83.94
12360;BME280;6244;51.460;7.090;2023-11-19T09:25:36;100013.69;;;11.36;85.65
12360;BME280;6244;51.460;7.090;2023-11-19T09:30:32;100004.91;;;11.50;85.14
12360;BME280;6244;51.460;7.090;2023-11-19T09:35:29;100004.28;;;11.46;85.11
12360;BME280;6244;51.460;7.090;2023-11-19T09:40:26;100012.97;;;11.73;84.43
12360;BME280;6244;51.460;7.090;2023-11-19T09:45:27;100011.78;;;11.79;84.50
12360;BME280;6244;51.460;7.090;2023-11-19T09:50:24;100013.63;;;12.17;81.53
12360;BME280;6244;51.460;7.090;2023-11-19T09:55:21;100011.28;;;12.50;78.98
12360;BME280;6244;51.460;7.090;2023-11-19T10:00:19;100016.22;;;13.30;76.46
12360;BME280;6244;51.460;7.090;2023-11-19T10:05:19;100005.13;;;13.61;73.75
12360;BME280;6244;51.460;7.090;2023-11-19T10:10:16;100009.69;;;12.73;76.62
12360;BME280;6244;51.460;7.090;2023-11-19T10:15:19;99995.72;;;12.22;78.70
12360;BME280;6244;51.460;7.090;2023-11-19T10:20:17;99996.69;;;12.08;80.02
12360;BME280;6244;51.460;7.090;2023-11-19T10:25:24;100004.66;;;11.94;80.35
12360;BME280;6244;51.460;7.090;2023-11-19T10:30:22;100005.72;;;11.91;80.04
12360;BME280;6244;51.460;7.090;2023-11-19T10:35:21;100000.94;;;11.84;79.80
12360;BME280;6244;51.460;7.090;2023-11-19T10:40:18;99997.50;;;11.96;79.68
12360;BME280;6244;51.460;7.090;2023-11-19T10:45:22;99988.28;;;12.16;79.23
12360;BME280;6244;51.460;7.090;2023-11-19T10:50:20;100002.06;;;12.32;77.94
12360;BME280;6244;51.460;7.090;2023-11-19T10:55:26;99992.47;;;12.05;78.20
12360;BME280;6244;51.460;7.090;2023-11-19T11:00:24;99985.94;;;11.98;78.60
12360;BME280;6244;51.460;7.090;2023-11-19T11:05:23;99988.66;;;11.97;79.27
12360;BME280;6244;51.460;7.090;2023-11-19T11:10:25;99990.91;;;12.03;79.09
12360;BME280;6244;51.460;7.090;2023-11-19T11:15:22;99979.94;;;12.09;78.14
12360;BME280;6244;51.460;7.090;2023-11-19T11:20:19;99983.09;;;12.14;78.28
12360;BME280;6244;51.460;7.090;2023-11-19T11:25:26;99972.69;;;12.25;77.72
12360;BME280;6244;51.460;7.090;2023-11-19T11:30:34;99976.03;;;12.27;76.49
12360;BME280;6244;51.460;7.090;2023-11-19T11:35:43;99976.81;;;12.29;75.21
12360;BME280;6244;51.460;7.090;2023-11-19T11:41:15;99952.41;;;12.77;73.58
12360;BME280;6244;51.460;7.090;2023-11-19T11:52:03;99947.09;;;13.26;71.38
12360;BME280;6244;51.460;7.090;2023-11-19T11:57:07;99941.38;;;12.72;72.96
12360;BME280;6244;51.460;7.090;2023-11-19T12:02:07;99948.97;;;12.51;74.09
12360;BME280;6244;51.460;7.090;2023-11-19T12:07:05;99940.03;;;12.66;73.51
12360;BME280;6244;51.460;7.090;2023-11-19T12:12:18;99940.63;;;14.11;66.99
12360;BME280;6244;51.460;7.090;2023-11-19T12:17:36;99938.03;;;13.30;70.34
12360;BME280;6244;51.460;7.090;2023-11-19T12:22:36;99939.53;;;12.85;71.42
12360;BME280;6244;51.460;7.090;2023-11-19T12:27:35;99938.41;;;12.76;72.05
12360;BME280;6244;51.460;7.090;2023-11-19T12:32:38;99916.66;;;12.61;72.33
12360;BME280;6244;51.460;7.090;2023-11-19T12:37:40;99890.22;;;12.63;72.87
12360;BME280;6244;51.460;7.090;2023-11-19T12:42:38;99900.34;;;12.56;73.24
12360;BME280;6244;51.460;7.090;2023-11-19T12:47:34;99907.63;;;12.53;72.77
12360;BME280;6244;51.460;7.090;2023-11-19T12:52:32;99899.22;;;12.48;74.04
12360;BME280;6244;51.460;7.090;2023-11-19T12:57:42;99895.75;;;11.71;84.04
12360;BME280;6244;51.460;7.090;2023-11-19T13:02:45;99908.28;;;11.28;88.03
12360;BME280;6244;51.460;7.090;2023-11-19T13:07:42;99919.25;;;11.07;91.00
12360;BME280;6244;51.460;7.090;2023-11-19T13:12:39;99931.88;;;11.15;88.57
12360;BME280;6244;51.460;7.090;2023-11-19T13:17:37;99932.81;;;11.14;87.25
12360;BME280;6244;51.460;7.090;2023-11-19T13:22:33;99932.13;;;11.25;84.94
12360;BME280;6244;51.460;7.090;2023-11-19T13:27:30;99926.41;;;11.45;83.78
12360;BME280;6244;51.460;7.090;2023-11-19T13:32:26;99937.66;;;11.47;83.20
12360;BME280;6244;51.460;7.090;2023-11-19T13:37:24;99918.78;;;11.67;82.63
12360;BME280;6244;51.460;7.090;2023-11-19T13:42:21;99918.03;;;11.65;83.36
12360;BME280;6244;51.460;7.090;2023-11-19T13:47:17;99912.56;;;11.56;83.72
12360;BME280;6244;51.460;7.090;2023-11-19T13:52:14;99908.78;;;11.60;83.10
12360;BME280;6244;51.460;7.090;2023-11-19T13:57:12;99914.66;;;11.63;83.48
12360;BME280;6244;51.460;7.090;2023-11-19T14:02:08;99911.63;;;11.57;83.71
12360;BME280;6244;51.460;7.090;2023-11-19T14:07:05;99898.50;;;11.69;82.74
12360;BME280;6244;51.460;7.090;2023-11-19T14:12:02;99893.47;;;11.66;82.96
12360;BME280;6244;51.460;7.090;2023-11-19T14:17:01;99900.78;;;11.61;82.83
12360;BME280;6244;51.460;7.090;2023-11-19T14:21:58;99901.84;;;11.59;83.41
12360;BME280;6244;51.460;7.090;2023-11-19T14:26:55;99908.66;;;11.48;85.45
12360;BME280;6244;51.460;7.090;2023-11-19T14:31:55;99908.75;;;11.07;90.49
12360;BME280;6244;51.460;7.090;2023-11-19T14:36:53;99914.16;;;10.92;93.15
12360;BME280;6244;51.460;7.090;2023-11-19T14:41:50;99896.38;;;10.82;94.40
12360;BME280;6244;51.460;7.090;2023-11-19T14:46:47;99910.25;;;10.84;93.95
12360;BME280;6244;51.460;7.090;2023-11-19T14:51:44;99911.09;;;10.85;93.42
12360;BME280;6244;51.460;7.090;2023-11-19T14:56:42;99904.16;;;10.84;91.15
12360;BME280;6244;51.460;7.090;2023-11-19T15:01:39;99913.59;;;10.86;90.67
12360;BME280;6244;51.460;7.090;2023-11-19T15:06:36;99895.44;;;10.83;89.59
12360;BME280;6244;51.460;7.090;2023-11-19T15:11:32;99886.25;;;10.76;89.98
12360;BME280;6244;51.460;7.090;2023-11-19T15:16:30;99878.50;;;10.75;89.68
12360;BME280;6244;51.460;7.090;2023-11-19T15:21:29;99888.72;;;10.65;90.89
12360;BME280;6244;51.460;7.090;2023-11-19T15:26:26;99884.19;;;10.54;92.17
12360;BME280;6244;51.460;7.090;2023-11-19T15:31:23;99904.41;;;10.52;93.66
12360;BME280;6244;51.460;7.090;2023-11-19T15:36:21;99901.34;;;10.32;97.95
12360;BME280;6244;51.460;7.090;2023-11-19T15:41:17;99902.75;;;10.23;100.00
12360;BME280;6244;51.460;7.090;2023-11-19T15:46:14;99891.94;;;10.13;100.00
12360;BME280;6244;51.460;7.090;2023-11-19T15:51:11;99882.78;;;10.06;100.00
12360;BME280;6244;51.460;7.090;2023-11-19T15:56:09;99869.78;;;10.05;100.00
12360;BME280;6244;51.460;7.090;2023-11-19T16:01:06;99873.06;;;10.08;100.00
12360;BME280;6244;51.460;7.090;2023-11-19T16:06:03;99883.44;;;10.10;100.00
12360;BME280;6244;51.460;7.090;2023-11-19T16:11:00;99882.09;;;10.17;100.00
12360;BME280;6244;51.460;7.090;2023-11-19T16:15:58;99891.94;;;10.13;100.00
12360;BME280;6244;51.460;7.090;2023-11-19T16:20:54;99882.50;;;10.11;100.00
12360;BME280;6244;51.460;7.090;2023-11-19T16:25:52;99896.25;;;10.14;100.00
12360;BME280;6244;51.460;7.090;2023-11-19T16:30:49;99902.72;;;10.09;100.00
12360;BME280;6244;51.460;7.090;2023-11-19T16:35:47;99907.47;;;10.02;100.00
12360;BME280;6244;51.460;7.090;2023-11-19T16:40:43;99907.13;;;9.94;100.00
12360;BME280;6244;51.460;7.090;2023-11-19T16:45:40;99911.59;;;9.92;100.00
12360;BME280;6244;51.460;7.090;2023-11-19T16:50:37;99916.19;;;9.88;100.00
12360;BME280;6244;51.460;7.090;2023-11-19T16:55:35;99925.25;;;9.83;100.00
12360;BME280;6244;51.460;7.090;2023-11-19T17:00:32;99921.41;;;9.74;100.00
12360;BME280;6244;51.460;7.090;2023-11-19T17:05:28;99911.22;;;9.69;100.00
12360;BME280;6244;51.460;7.090;2023-11-19T17:10:25;99914.00;;;9.66;100.00
12360;BME280;6244;51.460;7.090;2023-11-19T17:15:23;99913.34;;;9.63;100.00
12360;BME280;6244;51.460;7.090;2023-11-19T17:20:20;99915.84;;;9.64;100.00
12360;BME280;6244;51.460;7.090;2023-11-19T17:25:17;99916.34;;;9.71;100.00
12360;BME280;6244;51.460;7.090;2023-11-19T17:30:13;99914.78;;;9.68;100.00
12360;BME280;6244;51.460;7.090;2023-11-19T17:35:11;99922.63;;;9.68;100.00
12360;BME280;6244;51.460;7.090;2023-11-19T17:40:08;99909.59;;;9.67;100.00
12360;BME280;6244;51.460;7.090;2023-11-19T17:45:06;99911.00;;;9.58;100.00
12360;BME280;6244;51.460;7.090;2023-11-19T17:50:04;99919.69;;;9.59;100.00
12360;BME280;6244;51.460;7.090;2023-11-19T17:55:02;99915.41;;;9.58;100.00
12360;BME280;6244;51.460;7.090;2023-11-19T17:59:59;99915.66;;;9.53;100.00
12360;BME280;6244;51.460;7.090;2023-11-19T18:05:00;99903.59;;;9.51;100.00
12360;BME280;6244;51.460;7.090;2023-11-19T18:15:35;99895.91;;;9.48;100.00
12360;BME280;6244;51.460;7.090;2023-11-19T18:20:32;99894.31;;;9.45;100.00
12360;BME280;6244;51.460;7.090;2023-11-19T18:25:29;99899.72;;;9.42;100.00
12360;BME280;6244;51.460;7.090;2023-11-19T18:30:27;99895.69;;;9.36;100.00
12360;BME280;6244;51.460;7.090;2023-11-19T18:35:24;99899.25;;;9.35;100.00
12360;BME280;6244;51.460;7.090;2023-11-19T18:40:21;99897.66;;;9.33;100.00
12360;BME280;6244;51.460;7.090;2023-11-19T18:45:19;99899.44;;;9.32;100.00
12360;BME280;6244;51.460;7.090;2023-11-19T18:50:16;99890.72;;;9.32;100.00
12360;BME280;6244;51.460;7.090;2023-11-19T18:55:15;99894.34;;;9.29;100.00
12360;BME280;6244;51.460;7.090;2023-11-19T19:00:12;99877.78;;;9.29;100.00
12360;BME280;6244;51.460;7.090;2023-11-19T19:05:09;99888.28;;;9.29;100.00
12360;BME280;6244;51.460;7.090;2023-11-19T19:10:10;99885.94;;;9.24;100.00
12360;BME280;6244;51.460;7.090;2023-11-19T19:15:10;99885.84;;;9.26;100.00
12360;BME280;6244;51.460;7.090;2023-11-19T19:20:08;99875.47;;;9.24;100.00
12360;BME280;6244;51.460;7.090;2023-11-19T19:25:05;99875.47;;;9.24;100.00
12360;BME280;6244;51.460;7.090;2023-11-19T19:30:03;99880.59;;;9.26;100.00
12360;BME280;6244;51.460;7.090;2023-11-19T19:35:01;99868.34;;;9.26;100.00
12360;BME280;6244;51.460;7.090;2023-11-19T19:39:58;99866.66;;;9.25;100.00
12360;BME280;6244;51.460;7.090;2023-11-19T19:44:54;99856.00;;;9.28;100.00
12360;BME280;6244;51.460;7.090;2023-11-19T19:49:51;99848.34;;;9.25;100.00
12360;BME280;6244;51.460;7.090;2023-11-19T19:54:49;99854.31;;;9.27;100.00
12360;BME280;6244;51.460;7.090;2023-11-19T19:59:45;99857.88;;;9.26;100.00
12360;BME280;6244;51.460;7.090;2023-11-19T20:04:43;99853.50;;;9.27;100.00
12360;BME280;6244;51.460;7.090;2023-11-19T20:09:40;99855.16;;;9.28;100.00
12360;BME280;6244;51.460;7.090;2023-11-19T20:14:38;99854.50;;;9.24;100.00
12360;BME280;6244;51.460;7.090;2023-11-19T20:19:35;99849.28;;;9.24;100.00
12360;BME280;6244;51.460;7.090;2023-11-19T20:24:31;99860.69;;;9.23;100.00
12360;BME280;6244;51.460;7.090;2023-11-19T20:29:30;99850.41;;;9.20;100.00
12360;BME280;6244;51.460;7.090;2023-11-19T20:34:28;99855.44;;;9.23;100.00
12360;BME280;6244;51.460;7.090;2023-11-19T20:39:24;99863.13;;;9.26;100.00
12360;BME280;6244;51.460;7.090;2023-11-19T20:44:23;99863.97;;;9.27;100.00
12360;BME280;6244;51.460;7.090;2023-11-19T20:49:22;99859.56;;;9.27;100.00
12360;BME280;6244;51.460;7.090;2023-11-19T20:54:20;99867.50;;;9.26;100.00
12360;BME280;6244;51.460;7.090;2023-11-19T20:59:26;99877.78;;;9.29;100.00
12360;BME280;6244;51.460;7.090;2023-11-19T21:04:23;99857.63;;;9.31;100.00
12360;BME280;6244;51.460;7.090;2023-11-19T21:09:21;99867.72;;;9.37;100.00
12360;BME280;6244;51.460;7.090;2023-11-19T21:14:18;99865.13;;;9.37;100.00
12360;BME280;6244;51.460;7.090;2023-11-19T21:19:14;99865.13;;;9.37;100.00
12360;BME280;6244;51.460;7.090;2023-11-19T21:24:11;99869.06;;;9.44;100.00
12360;BME280;6244;51.460;7.090;2023-11-19T21:29:08;99856.81;;;9.45;100.00
12360;BME280;6244;51.460;7.090;2023-11-19T21:34:06;99853.16;;;9.47;100.00
12360;BME280;6244;51.460;7.090;2023-11-19T21:39:03;99858.41;;;9.47;100.00
12360;BME280;6244;51.460;7.090;2023-11-19T21:44:04;99859.25;;;9.48;100.00
12360;BME280;6244;51.460;7.090;2023-11-19T21:49:03;99858.31;;;9.49;100.00
12360;BME280;6244;51.460;7.090;2023-11-19T21:53:59;99870.56;;;9.48;100.00
12360;BME280;6244;51.460;7.090;2023-11-19T21:59:00;99879.16;;;9.50;100.00
12360;BME280;6244;51.460;7.090;2023-11-19T22:03:56;99882.53;;;9.52;100.00
12360;BME280;6244;51.460;7.090;2023-11-19T22:08:54;99880.94;;;9.50;100.00
12360;BME280;6244;51.460;7.090;2023-11-19T22:13:52;99873.19;;;9.48;100.00
12360;BME280;6244;51.460;7.090;2023-11-19T22:18:50;99879.91;;;9.52;100.00
12360;BME280;6244;51.460;7.090;2023-11-19T22:23:47;99875.63;;;9.51;100.00
12360;BME280;6244;51.460;7.090;2023-11-19T22:28:45;99863.25;;;9.53;100.00
12360;BME280;6244;51.460;7.090;2023-11-19T22:33:41;99875.44;;;9.54;100.00
12360;BME280;6244;51.460;7.090;2023-11-19T22:38:38;99891.13;;;9.54;100.00
12360;BME280;6244;51.460;7.090;2023-11-19T22:43:34;99877.97;;;9.56;100.00
12360;BME280;6244;51.460;7.090;2023-11-19T22:54:20;99905.94;;;9.55;100.00
12360;BME280;6244;51.460;7.090;2023-11-19T22:59:18;99886.75;;;9.55;100.00
12360;BME280;6244;51.460;7.090;2023-11-19T23:04:15;99886.69;;;9.56;100.00
12360;BME280;6244;51.460;7.090;2023-11-19T23:09:13;99887.25;;;9.61;100.00
12360;BME280;6244;51.460;7.090;2023-11-19T23:14:11;99885.75;;;9.57;100.00
12360;BME280;6244;51.460;7.090;2023-11-19T23:19:08;99879.47;;;9.60;100.00
12360;BME280;6244;51.460;7.090;2023-11-19T23:24:06;99897.72;;;9.61;100.00
12360;BME280;6244;51.460;7.090;2023-11-19T23:29:02;99905.47;;;9.63;100.00
12360;BME280;6244;51.460;7.090;2023-11-19T23:34:01;99888.72;;;9.65;100.00
12360;BME280;6244;51.460;7.090;2023-11-19T23:38:57;99896.78;;;9.62;100.00
12360;BME280;6244;51.460;7.090;2023-11-19T23:43:54;99894.91;;;9.64;100.00
12360;BME280;6244;51.460;7.090;2023-11-19T23:48:50;99898.56;;;9.62;100.00
12360;BME280;6244;51.460;7.090;2023-11-19T23:53:49;99893.22;;;9.63;100.00
12360;BME280;6244;51.460;7.090;2023-11-19T23:58:46;99910.72;;;9.63;100.00
